Portada
METAR-TAF:

METAR-TAF

Aeropuertos :

Aeropuerto Internacional de Adelaida

Adelaida, Australia

latitud: 34-56S, longitud: 138-31E, altitud: 6 m

Observación

El informe se hizo hace 39 minutos, a las 14:00 UTC
Viento 7 kt del sur
Temperatura 19°C
Humedad 68%
Presión 1019 hPa
Visibilidad 10 km o más
sin nubes por debajo de 1500 m y sin presencia de cumulonimbus.

METAR: YPAD 181400Z 18007KT CAVOK 19/13 Q1019 NOSIG

Hora: 01:09 (14:39 UTC)

Pronóstico

El informe se hizo hace 3 horas y 35 minutos, a las 11:04 UTC
Pronóstico válido del 18 a las 12 UTC al 19 a las 18 UTC
Viento 10 kt del sur
Visibilidad 10 km o más
Nubes dispersas a una altura de 2000 ft
A partir de las 18 a las 2200 UTC
Viento 12 kt del sur-sureste
Visibilidad 10 km o más
sin nubes por debajo de 1500 m y sin presencia de cumulonimbus.

TAF: YPAD 181104Z 1812/1918 17010KT 9999 SCT020 FM182200 15012KT CAVOK

Observaciones y pronósticos meteorológicos de más de 4000 aeropuertos (mensajes METAR y TAF).

Los puntos amarillos y rojos representan las estaciones disponibles.

Ponga el ratón en el punto deseado para ver el nombre de la estación.

Haga clic para ver las observaciones y los pronósticos meteorológicos.

Para cambiar el mapa : haga clic en los botones verdes con una cruz de color negro para hacer un zoom, en el botón verde con un guión para alejar o en las flechas verdes para mapas adyacentes.


METAR-TAF: